National Weather Service United States Department of Commerce


356
FTPA31 PHFO 061742
TAFSTU
TAF
NSTU 061742Z 0618/0718 11011KT P6SM VCSH SCT019 SCT025 SCT120=


000
SAZS31 NSTU 061904
MTRPPG

METAR NSTU 061850Z 13010KT 12SM FEW016 SCT040 BKN120 BKN200 28/25
A2995 RMK SLP144 T02830250=

METAR Formatted Surface Weather Observation  Issued: 12/06/2019 08:04:03 AM SST

NSTU Observation History

 

Significant Weather Charts